Time;durP1;ratioP1;P1;durP2;ratioP2;P2;SDS_P1;SDS_P2;PMS_P1;PMS_P2;Temp;Humidity;BMP_temperature;BMP_pressure;BME280_temperature;BME280_humidity;BME280_pressure;Samples;Min_cycle;Max_cycle;Signal;HPM_P1;HPM_P2
2023/04/08 00:02:16;;;;;;;3.47;2.40;;;;;;;;;;5096016;28;20470;-78
2023/04/08 00:04:41;;;;;;;2.75;2.50;;;;;;;;;;5077788;28;20047;-79
2023/04/08 00:07:07;;;;;;;2.67;2.45;;;;;;;;;;5044574;28;20028;-78
2023/04/08 00:09:32;;;;;;;2.45;2.25;;;;;;;;;;5095644;28;20043;-79
2023/04/08 00:11:57;;;;;;;2.72;2.38;;;;;;;;;;5077899;28;20028;-79
2023/04/08 00:14:23;;;;;;;3.33;2.15;;;;;;;;;;5077788;28;20077;-78
2023/04/08 00:16:48;;;;;;;2.45;2.25;;;;;;;;;;5077491;28;20395;-78
2023/04/08 00:19:14;;;;;;;2.53;2.28;;;;;;;;;;5077694;28;20067;-77
2023/04/08 00:21:39;;;;;;;3.05;2.40;;;;;;;;;;5077268;28;20033;-78
2023/04/08 00:24:05;;;;;;;2.75;2.30;;;;;;;;;;5095329;28;20210;-78
2023/04/08 00:26:31;;;;;;;2.40;2.20;;;;;;;;;;5077356;28;20426;-78
2023/04/08 00:28:56;;;;;;;4.00;2.10;;;;;;;;;;5095276;28;20062;-79
2023/04/08 00:31:22;;;;;;;2.33;2.00;;;;;;;;;;5077196;28;20382;-79
2023/04/08 00:33:47;;;;;;;3.00;2.05;;;;;;;;;;5077174;28;20107;-78
2023/04/08 00:36:13;;;;;;;2.08;1.88;;;;;;;;;;5076974;28;20389;-78
2023/04/08 00:38:38;;;;;;;3.35;1.85;;;;;;;;;;5060486;28;20036;-78
2023/04/08 00:41:04;;;;;;;2.30;2.00;;;;;;;;;;5094942;28;20028;-78
2023/04/08 00:43:29;;;;;;;2.10;1.90;;;;;;;;;;5060603;28;20031;-79
2023/04/08 00:45:55;;;;;;;2.20;2.00;;;;;;;;;;5077288;28;20085;-79
2023/04/08 00:48:20;;;;;;;1.80;1.70;;;;;;;;;;5060219;28;20031;-78
2023/04/08 00:50:46;;;;;;;2.33;2.00;;;;;;;;;;5077075;28;20397;-79
2023/04/08 00:53:14;;;;;;;2.08;1.88;;;;;;;;;;5077534;28;20510;-78
2023/04/08 00:55:40;;;;;;;1.95;1.75;;;;;;;;;;5077063;28;20039;-79
2023/04/08 00:58:05;;;;;;;2.35;1.70;;;;;;;;;;5073096;28;20048;-79
2023/04/08 01:00:31;;;;;;;1.90;1.70;;;;;;;;;;5093601;28;20036;-78
2023/04/08 01:03:07;;;;;;;2.17;1.98;;;;;;;;;;5076659;28;20024;-79
2023/04/08 01:05:45;;;;;;;2.15;1.95;;;;;;;;;;5059784;28;20096;-78
2023/04/08 01:08:11;;;;;;;1.90;1.80;;;;;;;;;;5076847;28;20374;-79
2023/04/08 01:10:40;;;;;;;2.10;1.90;;;;;;;;;;5076452;28;20039;-78
2023/04/08 01:13:09;;;;;;;3.42;1.85;;;;;;;;;;5059940;28;20074;-79
2023/04/08 01:15:35;;;;;;;1.75;1.65;;;;;;;;;;5076655;28;20032;-78
2023/04/08 01:18:05;;;;;;;1.75;1.58;;;;;;;;;;5076537;28;20042;-79
2023/04/08 01:20:31;;;;;;;1.70;1.60;;;;;;;;;;5076421;28;20539;-79
2023/04/08 01:23:02;;;;;;;1.70;1.60;;;;;;;;;;5059493;28;20170;-79
2023/04/08 01:25:33;;;;;;;1.80;1.70;;;;;;;;;;5076310;28;20042;-78
2023/04/08 01:28:07;;;;;;;1.73;1.63;;;;;;;;;;5076009;28;20043;-78
2023/04/08 01:30:33;;;;;;;2.25;1.65;;;;;;;;;;5059262;28;20034;-78
2023/04/08 01:33:00;;;;;;;1.70;1.60;;;;;;;;;;5059246;28;20478;-78
2023/04/08 01:35:26;;;;;;;1.80;1.70;;;;;;;;;;5075994;28;20042;-79
2023/04/08 01:37:52;;;;;;;1.40;1.30;;;;;;;;;;5076266;28;20103;-78
2023/04/08 01:40:18;;;;;;;1.67;1.58;;;;;;;;;;5075963;28;20035;-78
2023/04/08 01:42:45;;;;;;;1.70;1.60;;;;;;;;;;5058996;28;20020;-78
2023/04/08 01:45:11;;;;;;;1.70;1.60;;;;;;;;;;5059433;28;20031;-78
2023/04/08 01:47:37;;;;;;;1.50;1.40;;;;;;;;;;5075830;28;20479;-79
2023/04/08 01:50:04;;;;;;;1.70;1.60;;;;;;;;;;5093670;28;20039;-78
2023/04/08 01:52:31;;;;;;;1.75;1.60;;;;;;;;;;5094352;28;20028;-78
2023/04/08 01:54:57;;;;;;;2.10;1.60;;;;;;;;;;5058629;28;20403;-78
2023/04/08 01:57:32;;;;;;;1.50;1.40;;;;;;;;;;5075454;28;20052;-78
2023/04/08 02:00:00;;;;;;;3.25;1.83;;;;;;;;;;5058604;28;20475;-79
2023/04/08 02:02:25;;;;;;;3.35;1.60;;;;;;;;;;5093642;28;20083;-78
2023/04/08 02:04:52;;;;;;;1.60;1.50;;;;;;;;;;5075733;28;20180;-78
2023/04/08 02:07:18;;;;;;;2.35;1.80;;;;;;;;;;5075687;28;20111;-77
2023/04/08 02:09:43;;;;;;;1.60;1.50;;;;;;;;;;5075666;28;20048;-78
2023/04/08 02:12:09;;;;;;;1.63;1.52;;;;;;;;;;5093445;28;20122;-78
2023/04/08 02:14:34;;;;;;;1.60;1.50;;;;;;;;;;5058804;28;20040;-78
2023/04/08 02:17:08;;;;;;;2.08;1.60;;;;;;;;;;5058663;28;20579;-78
2023/04/08 02:19:54;;;;;;;1.48;1.38;;;;;;;;;;5075213;28;20024;-78
2023/04/08 02:22:30;;;;;;;1.63;1.52;;;;;;;;;;5076088;28;20048;-78
2023/04/08 02:24:57;;;;;;;1.67;1.58;;;;;;;;;;5093069;28;20036;-79
2023/04/08 02:27:24;;;;;;;2.05;1.70;;;;;;;;;;5058278;28;20039;-78
2023/04/08 02:29:49;;;;;;;1.60;1.50;;;;;;;;;;5075511;28;20046;-78
2023/04/08 02:32:16;;;;;;;1.42;1.33;;;;;;;;;;5075100;28;20047;-78
2023/04/08 02:34:42;;;;;;;1.50;1.40;;;;;;;;;;5058864;28;20032;-78
2023/04/08 02:37:08;;;;;;;1.50;1.40;;;;;;;;;;5058161;28;20123;-79
2023/04/08 02:39:34;;;;;;;1.60;1.50;;;;;;;;;;5074989;28;20119;-78
2023/04/08 02:42:00;;;;;;;1.30;1.20;;;;;;;;;;5093610;28;20038;-79
2023/04/08 02:44:25;;;;;;;1.60;1.50;;;;;;;;;;5075031;28;20028;-78
2023/04/08 02:46:51;;;;;;;1.50;1.40;;;;;;;;;;5093308;28;20028;-79
2023/04/08 02:49:16;;;;;;;1.60;1.50;;;;;;;;;;5093299;28;20103;-78
2023/04/08 02:51:41;;;;;;;1.50;1.40;;;;;;;;;;5092561;28;20455;-79
2023/04/08 02:54:07;;;;;;;1.38;1.27;;;;;;;;;;5075008;28;20043;-79
2023/04/08 02:56:32;;;;;;;1.30;1.20;;;;;;;;;;5092763;28;20036;-77
2023/04/08 02:58:58;;;;;;;1.50;1.40;;;;;;;;;;5074486;28;20056;-78
2023/04/08 03:01:24;;;;;;;1.50;1.40;;;;;;;;;;5092812;28;20093;-79
2023/04/08 03:03:49;;;;;;;1.40;1.30;;;;;;;;;;5092897;28;20116;-79
2023/04/08 03:06:15;;;;;;;1.30;1.20;;;;;;;;;;5094246;28;20040;-79
2023/04/08 03:08:40;;;;;;;1.17;1.13;;;;;;;;;;5078733;28;20470;-79
2023/04/08 03:11:06;;;;;;;1.38;1.27;;;;;;;;;;5078641;28;20027;-79
2023/04/08 03:13:31;;;;;;;1.20;1.10;;;;;;;;;;5078565;28;20031;-79
2023/04/08 03:15:57;;;;;;;1.50;1.40;;;;;;;;;;5096710;28;20028;-78
2023/04/08 03:18:23;;;;;;;1.40;1.30;;;;;;;;;;5061512;28;20024;-78
2023/04/08 03:20:49;;;;;;;1.27;1.25;;;;;;;;;;5061689;28;20081;-78
2023/04/08 03:23:15;;;;;;;1.33;1.23;;;;;;;;;;5096788;28;20020;-78
2023/04/08 03:25:40;;;;;;;1.00;1.00;;;;;;;;;;5078668;28;20063;-78
2023/04/08 03:28:06;;;;;;;1.30;1.20;;;;;;;;;;5096544;28;20024;-78
2023/04/08 03:30:31;;;;;;;1.20;1.20;;;;;;;;;;5096427;28;20484;-79
2023/04/08 03:32:56;;;;;;;1.02;1.02;;;;;;;;;;5096493;28;20135;-77
2023/04/08 03:35:22;;;;;;;2.20;1.20;;;;;;;;;;5096430;28;20028;-79
2023/04/08 03:37:47;;;;;;;0.98;0.98;;;;;;;;;;5078434;28;20063;-79
2023/04/08 03:40:13;;;;;;;1.25;1.17;;;;;;;;;;5077775;28;20106;-78
2023/04/08 03:42:38;;;;;;;1.00;1.00;;;;;;;;;;5095805;28;20462;-78
2023/04/08 03:45:04;;;;;;;1.00;1.00;;;;;;;;;;5061379;28;20591;-78
2023/04/08 03:47:29;;;;;;;1.00;1.00;;;;;;;;;;5096326;28;20042;-78
2023/04/08 03:49:55;;;;;;;1.00;1.00;;;;;;;;;;5096602;28;20032;-77
2023/04/08 03:52:20;;;;;;;0.90;0.90;;;;;;;;;;5078445;28;20028;-78
2023/04/08 03:54:45;;;;;;;1.10;1.10;;;;;;;;;;5061245;28;20058;-77
2023/04/08 03:57:11;;;;;;;1.02;0.90;;;;;;;;;;5095757;28;20495;-78
2023/04/08 03:59:38;;;;;;;1.00;1.00;;;;;;;;;;5077717;28;20550;-78
2023/04/08 04:02:04;;;;;;;0.90;0.90;;;;;;;;;;5095717;28;20024;-78
2023/04/08 04:04:29;;;;;;;1.10;1.00;;;;;;;;;;5095502;28;20035;-78
2023/04/08 04:06:55;;;;;;;1.00;1.00;;;;;;;;;;5077124;28;20080;-78
2023/04/08 04:09:20;;;;;;;0.88;0.85;;;;;;;;;;5076959;28;20433;-77
2023/04/08 04:11:45;;;;;;;0.80;0.80;;;;;;;;;;5076829;28;20028;-78
2023/04/08 04:14:11;;;;;;;0.90;0.90;;;;;;;;;;5076862;28;20108;-78
2023/04/08 04:16:36;;;;;;;0.80;0.80;;;;;;;;;;5094558;28;20031;-78
2023/04/08 04:19:02;;;;;;;1.08;0.98;;;;;;;;;;5076717;28;20032;-78
2023/04/08 04:21:27;;;;;;;2.28;0.90;;;;;;;;;;5094943;28;20120;-78
2023/04/08 04:23:53;;;;;;;1.00;1.00;;;;;;;;;;5076736;28;20101;-78
2023/04/08 04:26:18;;;;;;;1.00;1.00;;;;;;;;;;5059868;28;20042;-78
2023/04/08 04:28:43;;;;;;;1.65;0.90;;;;;;;;;;5077178;28;20028;-78
2023/04/08 04:31:25;;;;;;;1.08;1.00;;;;;;;;;;5076665;28;20425;-79
2023/04/08 04:33:50;;;;;;;1.25;1.15;;;;;;;;;;5094911;28;20486;-79
2023/04/08 04:36:16;;;;;;;1.13;1.02;;;;;;;;;;5076459;28;20028;-78
2023/04/08 04:38:44;;;;;;;1.23;1.13;;;;;;;;;;5076683;28;20035;-78
2023/04/08 04:41:10;;;;;;;1.30;1.20;;;;;;;;;;5094461;28;20054;-78
2023/04/08 04:43:35;;;;;;;1.30;1.13;;;;;;;;;;5094436;28;20055;-77
2023/04/08 04:46:02;;;;;;;1.65;1.40;;;;;;;;;;5059545;28;20032;-78
2023/04/08 04:48:28;;;;;;;1.40;1.10;;;;;;;;;;5094448;28;20027;-78
2023/04/08 04:50:58;;;;;;;1.35;1.20;;;;;;;;;;5077713;28;20386;-78
2023/04/08 04:53:26;;;;;;;1.23;1.10;;;;;;;;;;5059711;28;20400;-77
2023/04/08 04:55:51;;;;;;;1.23;1.13;;;;;;;;;;5076779;28;20051;-78
2023/04/08 04:58:18;;;;;;;1.17;1.08;;;;;;;;;;5094150;28;20447;-78
2023/04/08 05:00:43;;;;;;;1.30;1.20;;;;;;;;;;5076221;28;20098;-77
2023/04/08 05:03:09;;;;;;;1.27;1.17;;;;;;;;;;5075953;28;20028;-77
2023/04/08 05:05:34;;;;;;;1.63;1.52;;;;;;;;;;5094182;28;20455;-77
2023/04/08 05:08:00;;;;;;;2.55;1.40;;;;;;;;;;5076677;28;20043;-79
2023/04/08 05:10:25;;;;;;;1.42;1.30;;;;;;;;;;5076574;28;20031;-78
2023/04/08 05:12:51;;;;;;;0.95;0.95;;;;;;;;;;5095014;28;20020;-78
2023/04/08 05:15:16;;;;;;;1.70;1.38;;;;;;;;;;5094973;28;20054;-77
2023/04/08 05:17:41;;;;;;;2.33;1.60;;;;;;;;;;5076354;28;20031;-77
2023/04/08 05:20:07;;;;;;;2.40;1.65;;;;;;;;;;5059668;28;20044;-79
2023/04/08 05:22:33;;;;;;;2.60;1.20;;;;;;;;;;5076043;28;20047;-77
2023/04/08 05:24:58;;;;;;;1.27;1.17;;;;;;;;;;5075929;28;20024;-78
2023/04/08 05:27:24;;;;;;;1.50;1.25;;;;;;;;;;5076262;28;20027;-77
2023/04/08 05:29:50;;;;;;;1.30;1.20;;;;;;;;;;5058488;28;20514;-78
2023/04/08 05:32:15;;;;;;;1.35;1.25;;;;;;;;;;5076033;28;20032;-79
2023/04/08 05:34:41;;;;;;;1.40;1.30;;;;;;;;;;5094326;28;20028;-79
2023/04/08 05:37:07;;;;;;;1.30;1.20;;;;;;;;;;5093546;28;20020;-78
2023/04/08 05:39:32;;;;;;;1.10;1.10;;;;;;;;;;5075568;28;20119;-78
2023/04/08 05:41:57;;;;;;;1.40;1.30;;;;;;;;;;5075630;28;20467;-78
2023/04/08 05:44:23;;;;;;;0.90;0.90;;;;;;;;;;5075509;28;20031;-79
2023/04/08 05:46:48;;;;;;;1.23;1.13;;;;;;;;;;5058481;28;20028;-78
2023/04/08 05:49:16;;;;;;;1.38;1.10;;;;;;;;;;5093064;28;20052;-78
2023/04/08 05:51:41;;;;;;;1.05;0.95;;;;;;;;;;5093435;28;20056;-78
2023/04/08 05:54:06;;;;;;;1.33;1.20;;;;;;;;;;5075158;28;20056;-78
2023/04/08 05:56:32;;;;;;;1.23;1.10;;;;;;;;;;5075245;28;20054;-77
2023/04/08 05:58:57;;;;;;;1.33;1.20;;;;;;;;;;5092929;28;20056;-78
2023/04/08 06:01:24;;;;;;;1.52;1.33;;;;;;;;;;5075076;28;20085;-79
2023/04/08 06:03:51;;;;;;;1.20;1.13;;;;;;;;;;5058455;28;20122;-78
2023/04/08 06:06:17;;;;;;;1.40;1.20;;;;;;;;;;5093531;28;20474;-77
2023/04/08 06:08:42;;;;;;;1.25;1.13;;;;;;;;;;5058327;28;20028;-77
2023/04/08 06:11:08;;;;;;;1.50;1.38;;;;;;;;;;5093061;28;20032;-77
2023/04/08 06:13:33;;;;;;;1.90;1.27;;;;;;;;;;5075033;28;20032;-78
2023/04/08 06:16:09;;;;;;;1.55;1.30;;;;;;;;;;5075236;28;20028;-77
2023/04/08 06:18:34;;;;;;;2.25;1.60;;;;;;;;;;5074967;28;20039;-77
2023/04/08 06:21:00;;;;;;;4.18;1.80;;;;;;;;;;5058233;28;20335;-77
2023/04/08 06:23:25;;;;;;;4.70;2.03;;;;;;;;;;5093383;28;20028;-78
2023/04/08 06:25:52;;;;;;;3.38;1.80;;;;;;;;;;5093008;28;20028;-78
2023/04/08 06:28:18;;;;;;;5.75;2.00;;;;;;;;;;5092931;28;20062;-76
2023/04/08 06:30:43;;;;;;;5.28;2.20;;;;;;;;;;5092390;28;20032;-79
2023/04/08 06:33:08;;;;;;;7.78;2.40;;;;;;;;;;5092864;28;20249;-79
2023/04/08 06:35:36;;;;;;;16.02;3.03;;;;;;;;;;5075143;28;20336;-79
2023/04/08 06:38:01;;;;;;;12.57;3.10;;;;;;;;;;5092456;28;20047;-79
2023/04/08 06:40:26;;;;;;;7.25;2.95;;;;;;;;;;5057793;28;20100;-79
2023/04/08 06:42:52;;;;;;;8.57;3.22;;;;;;;;;;5057671;28;20123;-78
2023/04/08 06:45:18;;;;;;;7.20;2.78;;;;;;;;;;5074403;28;20035;-78
2023/04/08 06:47:43;;;;;;;10.18;3.53;;;;;;;;;;5057417;28;20028;-79
2023/04/08 06:50:09;;;;;;;16.02;3.22;;;;;;;;;;5074279;28;20097;-78
2023/04/08 06:52:34;;;;;;;8.10;3.03;;;;;;;;;;5074421;28;20028;-79
2023/04/08 06:55:00;;;;;;;6.97;2.80;;;;;;;;;;5092485;28;20036;-79
2023/04/08 06:57:25;;;;;;;5.78;3.03;;;;;;;;;;5073986;28;20101;-79
2023/04/08 06:59:52;;;;;;;8.18;3.33;;;;;;;;;;5074014;28;20047;-79
2023/04/08 07:02:17;;;;;;;7.40;2.65;;;;;;;;;;5092337;28;20412;-78
2023/04/08 07:04:43;;;;;;;16.88;3.35;;;;;;;;;;5092361;28;20024;-78
2023/04/08 07:07:08;;;;;;;4.43;2.60;;;;;;;;;;5075013;28;20425;-78
2023/04/08 07:09:35;;;;;;;14.32;2.95;;;;;;;;;;5074581;28;20028;-78
2023/04/08 07:12:02;;;;;;;7.45;2.97;;;;;;;;;;5074289;28;20489;-79
2023/04/08 07:14:28;;;;;;;10.85;2.50;;;;;;;;;;5092163;28;20028;-78
2023/04/08 07:16:55;;;;;;;3.75;2.55;;;;;;;;;;5057212;28;20024;-79
2023/04/08 07:19:21;;;;;;;10.70;2.45;;;;;;;;;;5073880;28;20032;-79
2023/04/08 07:21:47;;;;;;;4.70;2.50;;;;;;;;;;5065924;28;20499;-78
2023/04/08 07:24:12;;;;;;;10.00;2.72;;;;;;;;;;5084662;28;20111;-78
2023/04/08 07:26:38;;;;;;;5.63;2.50;;;;;;;;;;5057539;28;20034;-77
2023/04/08 07:29:03;;;;;;;5.97;2.50;;;;;;;;;;5057422;28;20115;-77
2023/04/08 07:31:28;;;;;;;4.45;2.33;;;;;;;;;;5092266;28;20024;-77
2023/04/08 07:33:54;;;;;;;8.63;2.95;;;;;;;;;;5074556;28;20032;-78
2023/04/08 07:36:19;;;;;;;5.65;2.50;;;;;;;;;;5092496;28;20024;-77
2023/04/08 07:38:46;;;;;;;5.78;2.70;;;;;;;;;;5074108;28;20114;-77
2023/04/08 07:41:15;;;;;;;6.90;2.30;;;;;;;;;;5074418;28;20028;-77
2023/04/08 07:43:40;;;;;;;5.72;2.17;;;;;;;;;;5074225;28;20047;-77
2023/04/08 07:46:06;;;;;;;6.72;2.28;;;;;;;;;;5075182;28;20024;-77
2023/04/08 07:48:32;;;;;;;2.80;2.10;;;;;;;;;;5074485;28;20424;-78
2023/04/08 07:50:58;;;;;;;5.15;2.20;;;;;;;;;;5074725;28;20024;-78
2023/04/08 07:53:25;;;;;;;3.30;1.90;;;;;;;;;;5061222;28;20114;-78
2023/04/08 07:55:51;;;;;;;3.92;2.08;;;;;;;;;;5078319;28;20035;-78
2023/04/08 07:58:16;;;;;;;7.72;2.15;;;;;;;;;;5061612;28;20048;-78
2023/04/08 08:00:42;;;;;;;6.07;2.30;;;;;;;;;;5078384;28;20154;-79
2023/04/08 08:03:07;;;;;;;2.13;1.92;;;;;;;;;;5062039;28;20110;-79
2023/04/08 08:05:32;;;;;;;2.83;2.05;;;;;;;;;;5078271;28;20124;-79
2023/04/08 08:07:58;;;;;;;3.25;2.10;;;;;;;;;;5060967;28;20039;-77
2023/04/08 08:10:23;;;;;;;5.53;1.90;;;;;;;;;;5096076;28;20471;-78
2023/04/08 08:12:49;;;;;;;4.65;2.10;;;;;;;;;;5061317;28;20034;-77
2023/04/08 08:15:15;;;;;;;3.78;1.83;;;;;;;;;;5060998;28;20051;-77
2023/04/08 08:17:40;;;;;;;3.67;2.00;;;;;;;;;;5078436;28;20032;-77
2023/04/08 08:20:06;;;;;;;5.10;2.10;;;;;;;;;;5077973;28;20370;-78
2023/04/08 08:22:32;;;;;;;4.90;2.05;;;;;;;;;;5095946;28;20024;-79
2023/04/08 08:24:58;;;;;;;2.58;1.80;;;;;;;;;;5095524;28;20494;-79
2023/04/08 08:27:24;;;;;;;2.45;1.90;;;;;;;;;;5077615;28;20030;-79
2023/04/08 08:29:50;;;;;;;2.85;1.98;;;;;;;;;;5077239;28;20031;-79
2023/04/08 08:32:15;;;;;;;2.92;2.05;;;;;;;;;;5076753;28;20073;-78
2023/04/08 08:34:41;;;;;;;5.45;2.20;;;;;;;;;;5077204;28;20056;-77
2023/04/08 08:37:06;;;;;;;6.60;2.83;;;;;;;;;;5061200;28;20385;-78
2023/04/08 08:39:32;;;;;;;4.60;2.45;;;;;;;;;;5095264;28;20462;-78
2023/04/08 08:41:58;;;;;;;5.07;2.40;;;;;;;;;;5060443;28;20036;-77
2023/04/08 08:44:23;;;;;;;7.30;2.75;;;;;;;;;;5077262;28;20028;-78
2023/04/08 08:46:48;;;;;;;6.95;2.47;;;;;;;;;;5060432;28;20024;-79
2023/04/08 08:49:14;;;;;;;7.97;2.47;;;;;;;;;;5095571;28;20052;-79
2023/04/08 08:51:41;;;;;;;6.78;2.70;;;;;;;;;;5095135;28;20020;-79
2023/04/08 08:54:07;;;;;;;3.28;2.22;;;;;;;;;;5060877;28;20028;-79
2023/04/08 08:56:33;;;;;;;5.05;2.50;;;;;;;;;;5060737;28;20024;-79
2023/04/08 08:58:58;;;;;;;4.03;2.17;;;;;;;;;;5060865;28;20131;-79
2023/04/08 09:01:34;;;;;;;4.28;2.28;;;;;;;;;;5096182;28;20028;-78
2023/04/08 09:04:09;;;;;;;2.72;2.00;;;;;;;;;;5077660;28;20031;-79
2023/04/08 09:06:35;;;;;;;2.97;2.05;;;;;;;;;;5095566;28;20058;-79
2023/04/08 09:09:04;;;;;;;3.35;2.13;;;;;;;;;;5095651;28;20035;-78
2023/04/08 09:11:30;;;;;;;2.50;2.08;;;;;;;;;;5044639;28;20062;-79
2023/04/08 09:13:56;;;;;;;3.78;2.28;;;;;;;;;;5076719;28;20051;-79
2023/04/08 09:16:22;;;;;;;3.33;2.40;;;;;;;;;;5095665;28;20040;-79
2023/04/08 09:18:48;;;;;;;3.65;2.33;;;;;;;;;;5077504;28;20032;-79
2023/04/08 09:21:15;;;;;;;2.55;2.05;;;;;;;;;;5077350;28;20363;-79
2023/04/08 09:23:49;;;;;;;4.25;2.42;;;;;;;;;;5078328;28;20042;-79
2023/04/08 09:26:18;;;;;;;3.70;2.78;;;;;;;;;;5095487;28;20469;-79
2023/04/08 09:29:00;;;;;;;7.80;2.60;;;;;;;;;;5061386;28;20035;-79
2023/04/08 09:31:27;;;;;;;3.92;2.58;;;;;;;;;;5095749;28;20487;-79
2023/04/08 09:33:55;;;;;;;2.55;2.30;;;;;;;;;;5043219;28;20364;-79
2023/04/08 09:36:21;;;;;;;3.63;2.50;;;;;;;;;;5059083;28;20091;-79
2023/04/08 09:38:46;;;;;;;2.83;2.20;;;;;;;;;;5076306;28;20024;-79
2023/04/08 09:41:16;;;;;;;2.83;2.30;;;;;;;;;;5075491;28;20039;-79
2023/04/08 09:43:50;;;;;;;3.17;2.05;;;;;;;;;;5076146;28;20085;-79
2023/04/08 09:46:17;;;;;;;2.60;2.22;;;;;;;;;;5075375;28;20331;-79
2023/04/08 09:48:50;;;;;;;4.55;2.72;;;;;;;;;;5058941;28;20020;-79
2023/04/08 09:51:17;;;;;;;4.10;1.97;;;;;;;;;;5075378;28;20024;-79
2023/04/08 09:53:46;;;;;;;2.25;1.83;;;;;;;;;;5093669;28;20061;-79
2023/04/08 09:56:13;;;;;;;2.60;2.20;;;;;;;;;;5075099;28;20474;-78
2023/04/08 09:58:41;;;;;;;2.50;1.98;;;;;;;;;;5093083;28;20051;-79
2023/04/08 10:01:09;;;;;;;3.25;2.20;;;;;;;;;;5059206;28;20474;-79
2023/04/08 10:03:40;;;;;;;2.38;1.95;;;;;;;;;;5076102;28;20028;-78
2023/04/08 10:06:07;;;;;;;2.40;2.20;;;;;;;;;;5058531;28;20034;-79
2023/04/08 10:08:32;;;;;;;4.60;2.33;;;;;;;;;;5058417;28;20020;-78
2023/04/08 10:10:58;;;;;;;3.67;2.20;;;;;;;;;;5058262;28;20032;-78
2023/04/08 10:13:24;;;;;;;3.45;2.20;;;;;;;;;;5074726;28;20387;-78
2023/04/08 10:15:49;;;;;;;4.88;2.20;;;;;;;;;;5092754;28;20459;-78
2023/04/08 10:18:18;;;;;;;3.00;2.38;;;;;;;;;;5057910;28;20062;-79
2023/04/08 10:20:44;;;;;;;4.22;2.45;;;;;;;;;;5074533;28;20035;-79
2023/04/08 10:23:15;;;;;;;2.83;2.28;;;;;;;;;;5074881;28;20051;-78
2023/04/08 10:25:46;;;;;;;3.05;2.30;;;;;;;;;;5058029;28;20103;-79
2023/04/08 10:28:17;;;;;;;3.00;2.20;;;;;;;;;;5075268;28;20081;-78
2023/04/08 10:30:54;;;;;;;2.83;2.25;;;;;;;;;;5092940;28;20454;-79
2023/04/08 10:33:28;;;;;;;2.65;2.38;;;;;;;;;;5075167;28;20024;-79
2023/04/08 10:35:56;;;;;;;3.40;2.47;;;;;;;;;;5092735;28;20035;-79
2023/04/08 10:38:21;;;;;;;2.45;2.25;;;;;;;;;;5074408;28;20448;-79
2023/04/08 10:40:48;;;;;;;3.47;2.40;;;;;;;;;;5058083;28;20032;-78
2023/04/08 10:43:14;;;;;;;2.72;2.15;;;;;;;;;;5074699;28;20024;-79
2023/04/08 10:45:40;;;;;;;2.00;1.88;;;;;;;;;;5074943;28;20046;-79
2023/04/08 10:48:18;;;;;;;2.30;2.10;;;;;;;;;;5057779;28;20077;-78
2023/04/08 10:50:51;;;;;;;2.92;2.30;;;;;;;;;;5074822;28;20481;-79
2023/04/08 10:53:17;;;;;;;2.25;1.95;;;;;;;;;;5057713;28;20148;-79
2023/04/08 10:55:42;;;;;;;2.58;2.03;;;;;;;;;;5073799;28;20425;-79
2023/04/08 10:58:10;;;;;;;2.90;2.05;;;;;;;;;;5092257;28;20515;-79
2023/04/08 11:00:39;;;;;;;3.47;2.50;;;;;;;;;;5074278;28;20019;-79
2023/04/08 11:03:10;;;;;;;3.30;2.20;;;;;;;;;;5057833;28;20028;-79
2023/04/08 11:05:36;;;;;;;2.05;1.85;;;;;;;;;;5057864;28;20055;-79
2023/04/08 11:08:03;;;;;;;3.88;2.38;;;;;;;;;;5057930;28;20340;-78
2023/04/08 11:10:28;;;;;;;2.30;2.08;;;;;;;;;;5057620;28;20028;-79
2023/04/08 11:12:54;;;;;;;3.10;2.40;;;;;;;;;;5057983;28;20422;-79
2023/04/08 11:15:20;;;;;;;3.03;2.15;;;;;;;;;;5075085;28;20028;-79
2023/04/08 11:17:47;;;;;;;6.43;2.50;;;;;;;;;;5093048;28;20024;-79
2023/04/08 11:20:12;;;;;;;7.32;2.53;;;;;;;;;;5076035;28;20028;-79
2023/04/08 11:22:39;;;;;;;3.13;2.50;;;;;;;;;;5093256;28;20039;-81
2023/04/08 11:25:07;;;;;;;2.60;2.30;;;;;;;;;;5059085;28;20504;-80
2023/04/08 11:27:35;;;;;;;5.13;2.40;;;;;;;;;;5076790;28;20379;-81
2023/04/08 11:30:00;;;;;;;8.55;2.80;;;;;;;;;;5078427;28;20501;-81
2023/04/08 11:32:27;;;;;;;3.53;2.40;;;;;;;;;;5060921;28;20036;-79
2023/04/08 11:34:53;;;;;;;6.15;2.28;;;;;;;;;;5077511;28;20052;-80
2023/04/08 11:37:18;;;;;;;8.82;2.53;;;;;;;;;;5077731;28;20120;-79
2023/04/08 11:39:44;;;;;;;4.72;2.40;;;;;;;;;;5078067;28;20442;-80
2023/04/08 11:42:29;;;;;;;3.85;2.65;;;;;;;;;;5096668;28;20131;-80
2023/04/08 11:44:55;;;;;;;4.68;2.50;;;;;;;;;;5061034;28;20032;-79
2023/04/08 11:47:20;;;;;;;3.78;2.53;;;;;;;;;;5077739;28;20109;-81
2023/04/08 11:49:46;;;;;;;3.90;2.25;;;;;;;;;;5060849;28;20036;-80
2023/04/08 11:52:12;;;;;;;3.72;2.08;;;;;;;;;;5061098;28;20390;-81
2023/04/08 11:54:41;;;;;;;4.78;2.22;;;;;;;;;;5077349;28;20107;-82
2023/04/08 11:57:08;;;;;;;6.25;2.25;;;;;;;;;;5043759;28;20076;-82
2023/04/08 11:59:37;;;;;;;3.15;2.15;;;;;;;;;;5078033;28;20486;-82
2023/04/08 12:02:03;;;;;;;6.35;2.53;;;;;;;;;;5096746;28;20039;-81
2023/04/08 12:04:29;;;;;;;6.35;2.08;;;;;;;;;;5077882;28;20089;-82
2023/04/08 12:06:54;;;;;;;8.30;2.50;;;;;;;;;;5078270;28;20019;-81
2023/04/08 12:09:21;;;;;;;4.65;2.30;;;;;;;;;;5096344;28;20483;-82
2023/04/08 12:11:46;;;;;;;4.90;2.08;;;;;;;;;;5078450;28;20032;-82
2023/04/08 12:14:11;;;;;;;4.97;1.98;;;;;;;;;;5096203;28;20051;-82
2023/04/08 12:16:37;;;;;;;3.40;2.05;;;;;;;;;;5061380;28;20036;-82
2023/04/08 12:19:02;;;;;;;6.40;2.20;;;;;;;;;;5095712;28;20081;-83
2023/04/08 12:21:27;;;;;;;6.82;2.20;;;;;;;;;;5077861;28;20035;-82
2023/04/08 12:23:53;;;;;;;5.45;2.08;;;;;;;;;;5076720;28;20505;-82
2023/04/08 12:26:18;;;;;;;2.50;1.85;;;;;;;;;;5059952;28;20082;-82
2023/04/08 12:28:44;;;;;;;3.20;2.10;;;;;;;;;;5076917;28;20028;-82
2023/04/08 12:31:10;;;;;;;2.33;1.90;;;;;;;;;;5077024;28;20028;-82
2023/04/08 12:33:36;;;;;;;1.83;1.67;;;;;;;;;;5043804;28;20073;-82
2023/04/08 12:36:01;;;;;;;5.20;2.00;;;;;;;;;;5076820;28;20024;-83
2023/04/08 12:38:27;;;;;;;3.58;2.00;;;;;;;;;;5059712;28;20489;-84
2023/04/08 12:40:52;;;;;;;2.50;1.63;;;;;;;;;;5060638;28;20039;-82
2023/04/08 12:43:18;;;;;;;2.40;1.80;;;;;;;;;;5059862;28;20028;-82
2023/04/08 12:45:43;;;;;;;2.22;1.65;;;;;;;;;;5095315;28;20039;-82
2023/04/08 12:48:09;;;;;;;3.33;1.90;;;;;;;;;;5060109;28;20408;-82
2023/04/08 12:50:34;;;;;;;2.00;1.80;;;;;;;;;;5094727;28;20119;-81
2023/04/08 12:53:00;;;;;;;7.10;2.63;;;;;;;;;;5094805;28;20120;-80
2023/04/08 12:55:25;;;;;;;3.15;1.70;;;;;;;;;;5094643;28;20028;-80
2023/04/08 12:57:51;;;;;;;2.30;1.90;;;;;;;;;;5076099;28;20524;-81
2023/04/08 13:00:20;;;;;;;2.00;1.70;;;;;;;;;;5076794;28;20036;-80
2023/04/08 13:02:45;;;;;;;2.67;1.90;;;;;;;;;;5094717;28;20020;-81
2023/04/08 13:05:11;;;;;;;3.25;1.80;;;;;;;;;;5077074;28;20028;-80
2023/04/08 13:07:36;;;;;;;2.60;1.95;;;;;;;;;;5042991;28;20118;-80
2023/04/08 13:10:03;;;;;;;4.85;2.47;;;;;;;;;;5076442;28;20156;-81
2023/04/08 13:12:28;;;;;;;3.80;1.77;;;;;;;;;;5094350;28;20514;-83
2023/04/08 13:14:54;;;;;;;2.63;2.00;;;;;;;;;;5076588;28;20044;-82
2023/04/08 13:17:19;;;;;;;3.95;1.88;;;;;;;;;;5076232;28;20123;-81
2023/04/08 13:19:46;;;;;;;2.30;2.08;;;;;;;;;;5076214;28;20032;-80
2023/04/08 13:22:12;;;;;;;2.83;1.98;;;;;;;;;;5076484;28;20027;-82
2023/04/08 13:24:38;;;;;;;7.32;2.47;;;;;;;;;;5077393;28;20040;-82
2023/04/08 13:27:03;;;;;;;6.00;2.63;;;;;;;;;;5076472;28;20024;-82
2023/04/08 13:29:29;;;;;;;4.75;2.40;;;;;;;;;;5094478;28;20108;-83
2023/04/08 13:31:54;;;;;;;5.80;2.70;;;;;;;;;;5094093;28;20020;-82
2023/04/08 13:34:20;;;;;;;3.35;2.05;;;;;;;;;;5094631;28;20089;-78
2023/04/08 13:36:45;;;;;;;2.78;2.10;;;;;;;;;;5093812;28;20032;-82
2023/04/08 13:39:10;;;;;;;4.53;2.25;;;;;;;;;;5075842;28;20042;-80
2023/04/08 13:41:36;;;;;;;2.25;1.92;;;;;;;;;;5075737;28;20039;-81
2023/04/08 13:44:01;;;;;;;2.45;2.22;;;;;;;;;;5075837;28;20051;-79
2023/04/08 13:46:32;;;;;;;2.10;1.83;;;;;;;;;;5094290;28;20391;-81
2023/04/08 13:48:57;;;;;;;2.20;2.00;;;;;;;;;;5075176;28;20096;-81
2023/04/08 13:51:23;;;;;;;3.55;2.00;;;;;;;;;;5093721;28;20032;-82
2023/04/08 13:53:48;;;;;;;6.95;2.03;;;;;;;;;;5058941;28;20039;-82
2023/04/08 13:56:14;;;;;;;2.88;2.13;;;;;;;;;;5075788;28;20032;-82
2023/04/08 13:58:39;;;;;;;2.45;2.00;;;;;;;;;;5076343;28;20062;-82
2023/04/08 14:01:05;;;;;;;2.92;2.10;;;;;;;;;;5076016;28;20479;-82
2023/04/08 14:03:31;;;;;;;5.38;2.28;;;;;;;;;;5075260;28;20120;-82
2023/04/08 14:05:57;;;;;;;2.47;2.00;;;;;;;;;;5075628;28;20047;-81
2023/04/08 14:08:25;;;;;;;4.40;2.00;;;;;;;;;;5093254;28;20028;-81
2023/04/08 14:10:52;;;;;;;2.40;2.00;;;;;;;;;;5076324;28;20028;-81
2023/04/08 14:13:17;;;;;;;2.30;1.92;;;;;;;;;;5075636;28;20031;-81
2023/04/08 14:15:42;;;;;;;3.15;2.05;;;;;;;;;;5075462;28;20032;-81
2023/04/08 14:18:08;;;;;;;2.47;2.00;;;;;;;;;;5093131;28;20024;-81
2023/04/08 14:20:34;;;;;;;2.60;1.77;;;;;;;;;;5074784;28;20482;-81
2023/04/08 14:23:00;;;;;;;5.72;1.50;;;;;;;;;;5093401;28;20031;-81
2023/04/08 14:25:25;;;;;;;4.70;1.80;;;;;;;;;;5092773;28;20093;-81
2023/04/08 14:27:51;;;;;;;2.35;2.15;;;;;;;;;;5074984;28;20040;-82
2023/04/08 14:30:16;;;;;;;2.22;1.92;;;;;;;;;;5093119;28;20028;-82
2023/04/08 14:32:42;;;;;;;1.73;1.63;;;;;;;;;;5075216;28;20024;-82
2023/04/08 14:35:07;;;;;;;3.85;1.55;;;;;;;;;;5074898;28;20371;-82
2023/04/08 14:37:33;;;;;;;2.33;1.67;;;;;;;;;;5093139;28;20100;-82
2023/04/08 14:39:58;;;;;;;2.33;1.70;;;;;;;;;;5041354;28;20032;-82